IST,Max TemperatureF,Mean TemperatureF,Min TemperatureF,Max Dew PointF,MeanDew PointF,Min DewpointF,Max Humidity, Mean Humidity, Min Humidity, Max Sea Level PressureIn, Mean Sea Level PressureIn, Min Sea Level PressureIn, Max VisibilityMiles, Mean VisibilityMiles, Min VisibilityMiles, Max Wind SpeedMPH, Mean Wind SpeedMPH, Max Gust SpeedMPH,PrecipitationIn, CloudCover, Events, WindDirDegrees
2013-3-1,90,78,67,72,65,57,100,65,30,29.96,29.88,29.83,6,3,0,16,3,,0.00,1,Fog,49
2013-3-2,91,80,70,73,69,63,94,71,37,29.99,29.91,29.86,6,3,1,14,3,,0.00,1,Fog,39
2013-3-3,91,80,68,73,66,52,100,65,21,29.99,29.91,29.83,6,4,0,16,4,21,0.00,1,Fog,49
2013-3-4,89,80,71,72,69,66,88,69,44,29.98,29.91,29.86,6,4,1,14,5,,0.00,2,,34
2013-3-5,87,80,74,75,72,70,89,73,50,29.99,29.91,29.83,6,4,1,14,6,,0.00,2,,34
2013-3-6,88,82,77,78,75,72,100,80,66,29.99,29.92,29.86,6,4,2,15,7,25,1.14,5,Rain-Thunderstorm,62
2013-3-7,88,82,75,77,75,73,100,83,66,30.00,29.93,29.86,6,4,1,14,4,,0.00,4,Rain,77
2013-3-8,90,83,76,77,74,70,94,75,47,30.01,29.93,29.86,6,4,1,12,5,,0.00,4,,82
2013-3-9,91,83,75,76,75,73,94,77,51,29.98,29.89,29.80,6,4,1,12,4,,0.00,2,,120
2013-3-10,91,82,74,77,75,73,100,78,54,29.93,29.84,29.77,6,4,1,14,4,,0.00,1,,168
2013-3-11,93,83,73,75,70,55,100,69,25,29.94,29.87,29.80,6,4,1,13,5,,0.00,2,,159
2013-3-12,91,82,73,73,71,61,94,70,36,29.95,29.88,29.80,6,4,1,13,4,,0.00,1,,168
2013-3-13,90,80,71,73,71,70,94,73,46,29.96,29.87,29.80,6,4,1,13,4,,0.00,1,,129
2013-3-14,91,82,72,74,71,61,100,69,31,29.96,29.88,29.80,6,4,1,13,5,,0.00,1,,137
2013-3-15,90,82,74,75,72,70,94,72,45,30.00,29.90,29.83,6,4,1,14,5,,0.00,2,,90
2013-3-16,91,82,73,73,71,66,94,69,35,30.01,29.93,29.86,6,4,1,12,3,,0.00,2,,107
2013-3-17,92,82,72,73,68,59,94,66,23,29.98,29.89,29.83,6,3,1,12,4,,0.00,2,,105
2013-3-18,92,82,71,72,70,61,94,69,34,29.91,29.84,29.77,6,3,1,12,4,,0.00,1,,110
2013-3-19,91,82,72,74,71,70,94,72,48,29.91,29.83,29.77,6,3,1,13,3,,0.00,1,,126
2013-3-20,91,82,74,75,73,71,94,73,44,29.93,29.85,29.77,6,3,1,12,5,,0.00,1,,126
2013-3-21,95,84,74,75,69,48,94,65,21,29.89,29.82,29.74,6,4,1,15,4,,0.00,1,,165
2013-3-22,97,84,72,74,69,54,89,65,17,29.86,29.77,29.68,6,4,1,14,5,,0.00,1,,167
2013-3-23,94,84,73,73,70,66,94,67,38,29.89,29.79,29.71,6,3,1,14,6,,0.00,1,,158
2013-3-24,92,83,74,75,73,70,94,72,45,29.91,29.83,29.77,6,4,1,13,4,,0.00,1,,123
2013-3-25,95,85,75,77,73,68,94,70,41,29.93,29.81,29.71,6,4,1,14,5,,0.00,2,,143
2013-3-26,95,85,75,77,72,66,89,67,31,29.84,29.77,29.68,6,4,2,16,6,,0.00,1,,161
2013-3-27,96,86,77,77,76,70,89,73,38,29.84,29.77,29.68,6,4,2,15,6,,0.00,1,,172
2013-3-28,94,86,77,77,74,66,94,70,36,29.90,29.80,29.71,6,4,2,15,7,,0.00,2,,160
2013-3-29,93,85,77,79,76,73,94,75,53,29.88,29.79,29.71,6,4,2,17,6,23,0.00,2,,150
2013-3-30,95,86,78,79,76,72,89,73,39,29.84,29.76,29.68,6,4,2,16,8,23,0.00,2,,169
2013-3-31,94,86,78,79,76,72,89,73,47,29.84,29.76,29.68,6,4,2,16,7,,0.00,2,,164